createdAt,value
2022-10-07T00:00:59.000Z,99693
2022-10-07T00:02:26.000Z,99694
2022-10-07T00:04:32.000Z,99694
2022-10-07T00:05:59.000Z,99697
2022-10-07T00:08:05.000Z,99694
2022-10-07T00:09:32.000Z,99700
2022-10-07T00:11:38.000Z,99702
2022-10-07T00:13:05.000Z,99701
2022-10-07T00:15:11.000Z,99694
2022-10-07T00:16:38.000Z,99696
2022-10-07T00:18:44.000Z,99698
2022-10-07T00:20:11.000Z,99696
2022-10-07T00:22:17.000Z,99697
2022-10-07T00:23:44.000Z,99689
2022-10-07T00:25:50.000Z,99691
2022-10-07T00:28:41.000Z,99683
2022-10-07T00:30:08.000Z,99684
2022-10-07T00:32:14.000Z,99683
2022-10-07T00:33:41.000Z,99683
2022-10-07T00:35:47.000Z,99679
2022-10-07T00:37:14.000Z,99677
2022-10-07T00:39:20.000Z,99675
2022-10-07T00:40:46.000Z,99675
2022-10-07T00:42:52.000Z,99668
2022-10-07T00:44:19.000Z,99669
2022-10-07T00:46:25.000Z,99664
2022-10-07T00:47:51.000Z,99662
2022-10-07T00:49:58.000Z,99656
2022-10-07T00:51:24.000Z,99655
2022-10-07T00:53:30.000Z,99647
2022-10-07T00:54:57.000Z,99649
2022-10-07T00:57:03.000Z,99643
2022-10-07T00:58:29.000Z,99642
2022-10-07T01:00:35.000Z,99640
2022-10-07T01:02:02.000Z,99641
2022-10-07T01:04:08.000Z,99641
2022-10-07T01:06:59.000Z,99634
2022-10-07T01:08:25.000Z,99635
2022-10-07T01:10:31.000Z,99636
2022-10-07T01:11:58.000Z,99635
2022-10-07T01:14:04.000Z,99633
2022-10-07T01:15:31.000Z,99634
2022-10-07T01:17:37.000Z,99630
2022-10-07T01:19:03.000Z,99626
2022-10-07T01:21:09.000Z,99626
2022-10-07T01:22:36.000Z,99626
2022-10-07T01:24:42.000Z,99625
2022-10-07T01:26:08.000Z,99620
2022-10-07T01:28:15.000Z,99622
2022-10-07T01:29:41.000Z,99622
2022-10-07T01:31:47.000Z,99620
2022-10-07T01:33:14.000Z,99615
2022-10-07T01:35:20.000Z,99614
2022-10-07T01:36:47.000Z,99609
2022-10-07T01:38:53.000Z,99607
2022-10-07T01:40:19.000Z,99603
2022-10-07T01:42:25.000Z,99599
2022-10-07T01:45:16.000Z,99595
2022-10-07T01:46:43.000Z,99599
2022-10-07T01:48:49.000Z,99592
2022-10-07T01:50:16.000Z,99588
2022-10-07T01:52:22.000Z,99582
2022-10-07T01:53:48.000Z,99588
2022-10-07T01:55:54.000Z,99581
2022-10-07T01:57:21.000Z,99576
2022-10-07T01:59:27.000Z,99574
2022-10-07T02:00:53.000Z,99574
2022-10-07T02:02:59.000Z,99573
2022-10-07T02:04:26.000Z,99571
2022-10-07T02:06:32.000Z,99576
2022-10-07T02:07:58.000Z,99574
2022-10-07T02:10:05.000Z,99572
2022-10-07T02:11:31.000Z,99569
2022-10-07T02:13:37.000Z,99568
2022-10-07T02:15:04.000Z,99566
2022-10-07T02:17:10.000Z,99564
2022-10-07T02:18:36.000Z,99561
2022-10-07T02:20:43.000Z,99560
2022-10-07T02:23:34.000Z,99558
2022-10-07T02:25:00.000Z,99556
2022-10-07T02:27:06.000Z,99554
2022-10-07T02:28:33.000Z,99554
2022-10-07T02:30:39.000Z,99556
2022-10-07T02:32:06.000Z,99550
2022-10-07T02:34:12.000Z,99549
2022-10-07T02:35:45.000Z,99548
2022-10-07T02:37:52.000Z,99546
2022-10-07T02:39:18.000Z,99546
2022-10-07T02:41:24.000Z,99545
2022-10-07T02:42:51.000Z,99542
2022-10-07T02:44:57.000Z,99540
2022-10-07T02:46:23.000Z,99540
2022-10-07T02:48:29.000Z,99539
2022-10-07T02:49:56.000Z,99540
2022-10-07T02:52:02.000Z,99541
2022-10-07T02:53:28.000Z,99538
2022-10-07T02:55:35.000Z,99538
2022-10-07T02:57:01.000Z,99539
2022-10-07T02:59:07.000Z,99533
2022-10-07T03:01:59.000Z,99526
2022-10-07T03:03:25.000Z,99525
2022-10-07T03:05:32.000Z,99526
2022-10-07T03:06:58.000Z,99521
2022-10-07T03:09:04.000Z,99522
2022-10-07T03:10:31.000Z,99523
2022-10-07T03:12:37.000Z,99517
2022-10-07T03:14:03.000Z,99516
2022-10-07T03:16:10.000Z,99516
2022-10-07T03:17:36.000Z,99519
2022-10-07T03:19:42.000Z,99520
2022-10-07T03:21:09.000Z,99520
2022-10-07T03:23:15.000Z,99519
2022-10-07T03:24:41.000Z,99517
2022-10-07T03:26:47.000Z,99517
2022-10-07T03:28:14.000Z,99516
2022-10-07T03:30:20.000Z,99516
2022-10-07T03:31:51.000Z,99514
2022-10-07T03:33:57.000Z,99517
2022-10-07T03:35:23.000Z,99514
2022-10-07T03:37:29.000Z,99513
2022-10-07T03:40:20.000Z,99512
2022-10-07T03:41:47.000Z,99513
2022-10-07T03:43:53.000Z,99514
2022-10-07T03:45:19.000Z,99512
2022-10-07T03:47:25.000Z,99505
2022-10-07T03:48:52.000Z,99505
2022-10-07T03:50:58.000Z,99504
2022-10-07T03:52:24.000Z,99499
2022-10-07T03:54:31.000Z,99500
2022-10-07T03:55:57.000Z,99497
2022-10-07T03:58:03.000Z,99490
2022-10-07T03:59:30.000Z,99494
2022-10-07T04:01:36.000Z,99489
2022-10-07T04:03:02.000Z,99485
2022-10-07T04:05:09.000Z,99484
2022-10-07T04:06:35.000Z,99488
2022-10-07T04:08:41.000Z,99486
2022-10-07T04:10:08.000Z,99489
2022-10-07T04:12:14.000Z,99481
2022-10-07T04:13:40.000Z,99481
2022-10-07T04:15:47.000Z,99480
2022-10-07T04:18:38.000Z,99481
2022-10-07T04:20:05.000Z,99481
2022-10-07T04:22:11.000Z,99475
2022-10-07T04:23:37.000Z,99474
2022-10-07T04:25:43.000Z,99478
2022-10-07T04:27:10.000Z,99476
2022-10-07T04:29:34.000Z,99473
2022-10-07T04:31:05.000Z,99471
2022-10-07T04:33:11.000Z,99472
2022-10-07T04:34:38.000Z,99472
2022-10-07T04:36:44.000Z,99470
2022-10-07T04:38:11.000Z,99472
2022-10-07T04:40:17.000Z,99473
2022-10-07T04:41:43.000Z,99472
2022-10-07T04:43:49.000Z,99470
2022-10-07T04:45:20.000Z,99468
2022-10-07T04:47:26.000Z,99466
2022-10-07T04:48:53.000Z,99464
2022-10-07T04:50:59.000Z,99464
2022-10-07T04:52:26.000Z,99461
2022-10-07T04:54:32.000Z,99458
2022-10-07T04:57:23.000Z,99460
2022-10-07T04:58:50.000Z,99455
2022-10-07T05:00:56.000Z,99456
2022-10-07T05:02:22.000Z,99457
2022-10-07T05:04:28.000Z,99450
2022-10-07T05:05:55.000Z,99451
2022-10-07T05:08:01.000Z,99448
2022-10-07T05:09:27.000Z,99447
2022-10-07T05:11:33.000Z,99443
2022-10-07T05:13:00.000Z,99446
2022-10-07T05:15:06.000Z,99441
2022-10-07T05:16:32.000Z,99445
2022-10-07T05:18:39.000Z,99445
2022-10-07T05:20:06.000Z,99441
2022-10-07T05:22:12.000Z,99444
2022-10-07T05:23:38.000Z,99440
2022-10-07T05:25:44.000Z,99441
2022-10-07T05:27:11.000Z,99442
2022-10-07T05:29:17.000Z,99438
2022-10-07T05:30:43.000Z,99437
2022-10-07T05:32:50.000Z,99432
2022-10-07T05:35:41.000Z,99431
2022-10-07T05:37:08.000Z,99440
2022-10-07T05:39:14.000Z,99436
2022-10-07T05:40:40.000Z,99434
2022-10-07T05:42:46.000Z,99436
2022-10-07T05:44:13.000Z,99436
2022-10-07T05:46:19.000Z,99433
2022-10-07T05:47:46.000Z,99430
2022-10-07T05:49:52.000Z,99426
2022-10-07T05:51:19.000Z,99426
2022-10-07T05:53:25.000Z,99428
2022-10-07T05:54:51.000Z,99425
2022-10-07T05:56:58.000Z,99424
2022-10-07T05:58:24.000Z,99426
2022-10-07T06:00:30.000Z,99424
2022-10-07T06:01:57.000Z,99427
2022-10-07T06:04:03.000Z,99419
2022-10-07T06:05:30.000Z,99416
2022-10-07T06:07:36.000Z,99413
2022-10-07T06:09:02.000Z,99414
2022-10-07T06:11:08.000Z,99415
2022-10-07T06:14:00.000Z,99414
2022-10-07T06:15:26.000Z,99415
2022-10-07T06:17:32.000Z,99419
2022-10-07T06:18:59.000Z,99415
2022-10-07T06:21:05.000Z,99419
2022-10-07T06:22:32.000Z,99418
2022-10-07T06:24:38.000Z,99413
2022-10-07T06:26:04.000Z,99414
2022-10-07T06:28:10.000Z,99415
2022-10-07T06:29:37.000Z,99416
2022-10-07T06:31:43.000Z,99415
2022-10-07T06:33:10.000Z,99413
2022-10-07T06:35:16.000Z,99412
2022-10-07T06:36:42.000Z,99413
2022-10-07T06:38:48.000Z,99410
2022-10-07T06:40:15.000Z,99411
2022-10-07T06:42:21.000Z,99407
2022-10-07T06:43:47.000Z,99412
2022-10-07T06:45:54.000Z,99413
2022-10-07T06:47:20.000Z,99414
2022-10-07T06:49:26.000Z,99422
2022-10-07T06:52:18.000Z,99420
2022-10-07T06:53:44.000Z,99420
2022-10-07T06:55:50.000Z,99420
2022-10-07T06:57:17.000Z,99419
2022-10-07T06:59:50.000Z,99418
2022-10-07T07:01:17.000Z,99419
2022-10-07T07:03:23.000Z,99416
2022-10-07T07:04:50.000Z,99412
2022-10-07T07:07:02.000Z,99418
2022-10-07T07:08:29.000Z,99420
2022-10-07T07:10:35.000Z,99423
2022-10-07T07:12:01.000Z,99423
2022-10-07T07:14:07.000Z,99417
2022-10-07T07:15:34.000Z,99415
2022-10-07T07:17:40.000Z,99412
2022-10-07T07:19:07.000Z,99409
2022-10-07T07:21:13.000Z,99406
2022-10-07T07:22:39.000Z,99403
2022-10-07T07:24:45.000Z,99403
2022-10-07T07:26:12.000Z,99400
2022-10-07T07:28:18.000Z,99402
2022-10-07T07:31:09.000Z,99402
2022-10-07T07:32:36.000Z,99398
2022-10-07T07:34:42.000Z,99403
2022-10-07T07:36:08.000Z,99400
2022-10-07T07:38:15.000Z,99399
2022-10-07T07:39:41.000Z,99398
2022-10-07T07:41:47.000Z,99399
2022-10-07T07:43:14.000Z,99398
2022-10-07T07:45:20.000Z,99394
2022-10-07T07:46:46.000Z,99394
2022-10-07T07:48:52.000Z,99385
2022-10-07T07:50:19.000Z,99386
2022-10-07T07:52:25.000Z,99383
2022-10-07T07:53:52.000Z,99380
2022-10-07T07:55:58.000Z,99382
2022-10-07T07:57:24.000Z,99380
2022-10-07T07:59:30.000Z,99380
2022-10-07T08:00:57.000Z,99377
2022-10-07T08:03:03.000Z,99376
2022-10-07T08:04:30.000Z,99373
2022-10-07T08:06:36.000Z,99372
2022-10-07T08:09:27.000Z,99371
2022-10-07T08:10:53.000Z,99368
2022-10-07T08:12:59.000Z,99369
2022-10-07T08:14:26.000Z,99366
2022-10-07T08:16:32.000Z,99367
2022-10-07T08:17:59.000Z,99361
2022-10-07T08:20:05.000Z,99360
2022-10-07T08:21:31.000Z,99358
2022-10-07T08:23:37.000Z,99357
2022-10-07T08:25:04.000Z,99354
2022-10-07T08:27:10.000Z,99353
2022-10-07T08:28:36.000Z,99351
2022-10-07T08:30:42.000Z,99346
2022-10-07T08:32:09.000Z,99344
2022-10-07T08:34:15.000Z,99341
2022-10-07T08:35:42.000Z,99336
2022-10-07T08:37:48.000Z,99336
2022-10-07T08:39:15.000Z,99333
2022-10-07T08:41:21.000Z,99331
2022-10-07T08:42:47.000Z,99328
2022-10-07T08:44:54.000Z,99329
2022-10-07T08:47:45.000Z,99320
2022-10-07T08:49:12.000Z,99319
2022-10-07T08:51:18.000Z,99314
2022-10-07T08:52:44.000Z,99315
2022-10-07T08:54:50.000Z,99315
2022-10-07T08:56:17.000Z,99311
2022-10-07T08:58:23.000Z,99305
2022-10-07T08:59:49.000Z,99304
2022-10-07T09:01:56.000Z,99299
2022-10-07T09:03:22.000Z,99296
2022-10-07T09:05:31.000Z,99292
2022-10-07T09:06:57.000Z,99289
2022-10-07T09:09:03.000Z,99287
2022-10-07T09:10:30.000Z,99283
2022-10-07T09:12:36.000Z,99281
2022-10-07T09:14:03.000Z,99281
2022-10-07T09:16:09.000Z,99276
2022-10-07T09:17:35.000Z,99276
2022-10-07T09:19:42.000Z,99273
2022-10-07T09:21:08.000Z,99270
2022-10-07T09:23:14.000Z,99267
2022-10-07T09:26:05.000Z,99264
2022-10-07T09:27:32.000Z,99262
2022-10-07T09:29:38.000Z,99258
2022-10-07T09:31:04.000Z,99255
2022-10-07T09:33:11.000Z,99249
2022-10-07T09:34:37.000Z,99246
2022-10-07T09:36:43.000Z,99242
2022-10-07T09:38:10.000Z,99241
2022-10-07T09:40:16.000Z,99237
2022-10-07T09:41:42.000Z,99235
2022-10-07T09:43:48.000Z,99231
2022-10-07T09:45:15.000Z,99229
2022-10-07T09:47:21.000Z,99228
2022-10-07T09:48:47.000Z,99223
2022-10-07T09:50:53.000Z,99226
2022-10-07T09:52:20.000Z,99226
2022-10-07T09:54:26.000Z,99220
2022-10-07T09:55:53.000Z,99222
2022-10-07T09:57:59.000Z,99219
2022-10-07T09:59:25.000Z,99217
2022-10-07T10:01:31.000Z,99216
2022-10-07T10:04:22.000Z,99208
2022-10-07T10:05:49.000Z,99207
2022-10-07T10:07:55.000Z,99207
2022-10-07T10:09:22.000Z,99200
2022-10-07T10:11:28.000Z,99196
2022-10-07T10:12:54.000Z,99192
2022-10-07T10:15:00.000Z,99186
2022-10-07T10:16:27.000Z,99187
2022-10-07T10:18:33.000Z,99185
2022-10-07T10:20:00.000Z,99182
2022-10-07T10:22:06.000Z,99180
2022-10-07T10:23:32.000Z,99177
2022-10-07T10:25:38.000Z,99176
2022-10-07T10:27:05.000Z,99174
2022-10-07T10:29:11.000Z,99170
2022-10-07T10:30:37.000Z,99167
2022-10-07T10:32:43.000Z,99162
2022-10-07T10:34:11.000Z,99161
2022-10-07T10:36:17.000Z,99154
2022-10-07T10:37:43.000Z,99150
2022-10-07T10:39:49.000Z,99149
2022-10-07T10:42:41.000Z,99145
2022-10-07T10:44:07.000Z,99140
2022-10-07T10:46:13.000Z,99136
2022-10-07T10:47:40.000Z,99131
2022-10-07T10:49:46.000Z,99129
2022-10-07T10:51:12.000Z,99128
2022-10-07T10:53:19.000Z,99116
2022-10-07T10:54:45.000Z,99120
2022-10-07T10:56:51.000Z,99122
2022-10-07T10:58:18.000Z,99113
2022-10-07T11:00:24.000Z,99111
2022-10-07T11:01:50.000Z,99109
2022-10-07T11:03:57.000Z,99110
2022-10-07T11:05:23.000Z,99106
2022-10-07T11:07:29.000Z,99100
2022-10-07T11:08:56.000Z,99095
2022-10-07T11:11:02.000Z,99092
2022-10-07T11:12:28.000Z,99087
2022-10-07T11:14:35.000Z,99091
2022-10-07T11:16:01.000Z,99088
2022-10-07T11:18:07.000Z,99090
2022-10-07T11:20:59.000Z,99083
2022-10-07T11:22:25.000Z,99083
2022-10-07T11:24:31.000Z,99078
2022-10-07T11:25:58.000Z,99079
2022-10-07T11:28:04.000Z,99076
2022-10-07T11:29:31.000Z,99068
2022-10-07T11:31:37.000Z,99067
2022-10-07T11:33:04.000Z,99067
2022-10-07T11:35:10.000Z,99069
2022-10-07T11:36:36.000Z,99066
2022-10-07T11:38:42.000Z,99067
2022-10-07T11:40:09.000Z,99062
2022-10-07T11:42:15.000Z,99058
2022-10-07T11:43:41.000Z,99056
2022-10-07T11:45:47.000Z,99055
2022-10-07T11:47:14.000Z,99050
2022-10-07T11:49:20.000Z,99044
2022-10-07T11:50:46.000Z,99047
2022-10-07T11:52:53.000Z,99041
2022-10-07T11:54:19.000Z,99037
2022-10-07T11:56:25.000Z,99035
2022-10-07T11:59:17.000Z,99028
2022-10-07T12:00:43.000Z,99031
2022-10-07T12:02:49.000Z,99025
2022-10-07T12:04:17.000Z,99020
2022-10-07T12:06:23.000Z,99016
2022-10-07T12:07:49.000Z,99015
2022-10-07T12:09:55.000Z,99012
2022-10-07T12:11:22.000Z,99003
2022-10-07T12:13:28.000Z,99001
2022-10-07T12:14:55.000Z,98997
2022-10-07T12:17:01.000Z,98993
2022-10-07T12:18:28.000Z,98992
2022-10-07T12:20:34.000Z,98984
2022-10-07T12:22:00.000Z,98985
2022-10-07T12:24:07.000Z,98982
2022-10-07T12:25:33.000Z,98978
2022-10-07T12:27:39.000Z,98980
2022-10-07T12:29:06.000Z,98976
2022-10-07T12:31:12.000Z,98973
2022-10-07T12:32:39.000Z,98973
2022-10-07T12:34:45.000Z,98971
2022-10-07T12:37:36.000Z,98965
2022-10-07T12:39:02.000Z,98962
2022-10-07T12:41:08.000Z,98964
2022-10-07T12:42:35.000Z,98961
2022-10-07T12:44:41.000Z,98956
2022-10-07T12:46:08.000Z,98953
2022-10-07T12:48:14.000Z,98951
2022-10-07T12:49:40.000Z,98950
2022-10-07T12:51:46.000Z,98945
2022-10-07T12:53:13.000Z,98942
2022-10-07T12:55:19.000Z,98948
2022-10-07T12:56:46.000Z,98939
2022-10-07T12:58:52.000Z,98936
2022-10-07T13:00:18.000Z,98939
2022-10-07T13:02:24.000Z,98935
2022-10-07T13:03:51.000Z,98934
2022-10-07T13:05:57.000Z,98928
2022-10-07T13:07:23.000Z,98926
2022-10-07T13:09:30.000Z,98928
2022-10-07T13:10:56.000Z,98925
2022-10-07T13:13:02.000Z,98922
2022-10-07T13:15:54.000Z,98913
2022-10-07T13:17:20.000Z,98909
2022-10-07T13:19:26.000Z,98903
2022-10-07T13:20:53.000Z,98905
2022-10-07T13:22:59.000Z,98903
2022-10-07T13:24:25.000Z,98901
2022-10-07T13:26:32.000Z,98901
2022-10-07T13:27:58.000Z,98899
2022-10-07T13:30:04.000Z,98894
2022-10-07T13:31:31.000Z,98898
2022-10-07T13:33:37.000Z,98894
2022-10-07T13:35:04.000Z,98893
2022-10-07T13:37:10.000Z,98893
2022-10-07T13:38:36.000Z,98891
2022-10-07T13:40:42.000Z,98891
2022-10-07T13:42:09.000Z,98879
2022-10-07T13:44:15.000Z,98878
2022-10-07T13:45:41.000Z,98881
2022-10-07T13:47:47.000Z,98884
2022-10-07T13:49:14.000Z,98882
2022-10-07T13:51:20.000Z,98879
2022-10-07T13:54:11.000Z,98873
2022-10-07T13:55:37.000Z,98875
2022-10-07T13:57:44.000Z,98870
2022-10-07T13:59:10.000Z,98871
2022-10-07T14:01:16.000Z,98869
2022-10-07T14:02:43.000Z,98865
2022-10-07T14:04:49.000Z,98862
2022-10-07T14:06:16.000Z,98859
2022-10-07T14:08:22.000Z,98862
2022-10-07T14:09:48.000Z,98862
2022-10-07T14:11:54.000Z,98859
2022-10-07T14:13:21.000Z,98852
2022-10-07T14:15:27.000Z,98850
2022-10-07T14:16:53.000Z,98850
2022-10-07T14:19:00.000Z,98851
2022-10-07T14:20:26.000Z,98847
2022-10-07T14:22:32.000Z,98849
2022-10-07T14:23:59.000Z,98845
2022-10-07T14:26:05.000Z,98845
2022-10-07T14:27:31.000Z,98841
2022-10-07T14:29:38.000Z,98838
2022-10-07T14:32:29.000Z,98835
2022-10-07T14:33:56.000Z,98829
2022-10-07T14:36:02.000Z,98832
2022-10-07T14:37:28.000Z,98829
2022-10-07T14:39:37.000Z,98825
2022-10-07T14:41:04.000Z,98822
2022-10-07T14:43:10.000Z,98823
2022-10-07T14:44:36.000Z,98823
2022-10-07T14:46:43.000Z,98814
2022-10-07T14:48:09.000Z,98813
2022-10-07T14:50:15.000Z,98811
2022-10-07T14:51:42.000Z,98818
2022-10-07T14:53:48.000Z,98821
2022-10-07T14:55:14.000Z,98814
2022-10-07T14:57:20.000Z,98813
2022-10-07T14:58:47.000Z,98814
2022-10-07T15:00:53.000Z,98808
2022-10-07T15:02:20.000Z,98811
2022-10-07T15:04:26.000Z,98805
2022-10-07T15:05:52.000Z,98800
2022-10-07T15:07:59.000Z,98800
2022-10-07T15:10:50.000Z,98795
2022-10-07T15:12:17.000Z,98795
2022-10-07T15:14:23.000Z,98791
2022-10-07T15:15:49.000Z,98787
2022-10-07T15:17:55.000Z,98789
2022-10-07T15:19:22.000Z,98786
2022-10-07T15:21:28.000Z,98786
2022-10-07T15:22:54.000Z,98784
2022-10-07T15:25:00.000Z,98786
2022-10-07T15:26:27.000Z,98785
2022-10-07T15:28:33.000Z,98786
2022-10-07T15:30:00.000Z,98785
2022-10-07T15:32:06.000Z,98780
2022-10-07T15:33:33.000Z,98780
2022-10-07T15:35:39.000Z,98776
2022-10-07T15:37:05.000Z,98776
2022-10-07T15:39:11.000Z,98776
2022-10-07T15:40:38.000Z,98778
2022-10-07T15:42:44.000Z,98782
2022-10-07T15:44:11.000Z,98781
2022-10-07T15:46:17.000Z,98780
2022-10-07T15:49:08.000Z,98782
2022-10-07T15:50:35.000Z,98781
2022-10-07T15:52:41.000Z,98775
2022-10-07T15:54:08.000Z,98778
2022-10-07T15:56:14.000Z,98779
2022-10-07T15:57:40.000Z,98776
2022-10-07T15:59:46.000Z,98774
2022-10-07T16:01:13.000Z,98777
2022-10-07T16:03:19.000Z,98777
2022-10-07T16:04:45.000Z,98777
2022-10-07T16:06:52.000Z,98779
2022-10-07T16:08:18.000Z,98775
2022-10-07T16:10:24.000Z,98777
2022-10-07T16:11:51.000Z,98776
2022-10-07T16:13:57.000Z,98773
2022-10-07T16:15:23.000Z,98773
2022-10-07T16:17:30.000Z,98775
2022-10-07T16:18:56.000Z,98769
2022-10-07T16:21:02.000Z,98770
2022-10-07T16:22:29.000Z,98773
2022-10-07T16:24:35.000Z,98769
2022-10-07T16:27:27.000Z,98773
2022-10-07T16:28:53.000Z,98773
2022-10-07T16:30:59.000Z,98770
2022-10-07T16:32:26.000Z,98773
2022-10-07T16:34:32.000Z,98768
2022-10-07T16:35:58.000Z,98772
2022-10-07T16:38:04.000Z,98769
2022-10-07T16:39:31.000Z,98771
2022-10-07T16:41:37.000Z,98769
2022-10-07T16:43:04.000Z,98767
2022-10-07T16:45:10.000Z,98771
2022-10-07T16:46:36.000Z,98768
2022-10-07T16:48:43.000Z,98770
2022-10-07T16:50:09.000Z,98770
2022-10-07T16:52:17.000Z,98771
2022-10-07T16:53:43.000Z,98768
2022-10-07T16:55:49.000Z,98774
2022-10-07T16:57:16.000Z,98770
2022-10-07T16:59:22.000Z,98770
2022-10-07T17:00:50.000Z,98767
2022-10-07T17:02:56.000Z,98769
2022-10-07T17:05:47.000Z,98771
2022-10-07T17:07:14.000Z,98772
2022-10-07T17:09:20.000Z,98774
2022-10-07T17:10:46.000Z,98772
2022-10-07T17:12:52.000Z,98773
2022-10-07T17:14:19.000Z,98771
2022-10-07T17:16:25.000Z,98773
2022-10-07T17:17:52.000Z,98772
2022-10-07T17:19:58.000Z,98772
2022-10-07T17:21:24.000Z,98770
2022-10-07T17:23:30.000Z,98769
2022-10-07T17:24:57.000Z,98770
2022-10-07T17:27:03.000Z,98764
2022-10-07T17:28:29.000Z,98764
2022-10-07T17:30:36.000Z,98767
2022-10-07T17:32:02.000Z,98766
2022-10-07T17:34:08.000Z,98770
2022-10-07T17:35:35.000Z,98771
2022-10-07T17:37:41.000Z,98772
2022-10-07T17:39:07.000Z,98768
2022-10-07T17:41:14.000Z,98763
2022-10-07T17:44:05.000Z,98764
2022-10-07T17:45:31.000Z,98761
2022-10-07T17:47:37.000Z,98764
2022-10-07T17:49:04.000Z,98764
2022-10-07T17:51:10.000Z,98763
2022-10-07T17:52:36.000Z,98759
2022-10-07T17:54:42.000Z,98762
2022-10-07T17:56:09.000Z,98758
2022-10-07T17:58:15.000Z,98762
2022-10-07T17:59:42.000Z,98760
2022-10-07T18:01:48.000Z,98764
2022-10-07T18:03:14.000Z,98760
2022-10-07T18:05:20.000Z,98754
2022-10-07T18:06:47.000Z,98758
2022-10-07T18:08:53.000Z,98759
2022-10-07T18:10:19.000Z,98755
2022-10-07T18:12:26.000Z,98754
2022-10-07T18:13:52.000Z,98751
2022-10-07T18:15:58.000Z,98747
2022-10-07T18:17:25.000Z,98748
2022-10-07T18:19:31.000Z,98750
2022-10-07T18:22:22.000Z,98749
2022-10-07T18:23:48.000Z,98752
2022-10-07T18:25:54.000Z,98752
2022-10-07T18:27:28.000Z,98748
2022-10-07T18:29:34.000Z,98749
2022-10-07T18:31:00.000Z,98746
2022-10-07T18:33:06.000Z,98739
2022-10-07T18:34:33.000Z,98739
2022-10-07T18:36:39.000Z,98736
2022-10-07T18:38:06.000Z,98734
2022-10-07T18:40:12.000Z,98734
2022-10-07T18:41:38.000Z,98735
2022-10-07T18:43:44.000Z,98734
2022-10-07T18:45:11.000Z,98734
2022-10-07T18:47:17.000Z,98731
2022-10-07T18:48:44.000Z,98729
2022-10-07T18:50:50.000Z,98728
2022-10-07T18:52:16.000Z,98724
2022-10-07T18:54:22.000Z,98720
2022-10-07T18:55:49.000Z,98720
2022-10-07T18:57:55.000Z,98716
2022-10-07T19:00:46.000Z,98712
2022-10-07T19:02:13.000Z,98713
2022-10-07T19:04:19.000Z,98713
2022-10-07T19:05:45.000Z,98713
2022-10-07T19:07:52.000Z,98714
2022-10-07T19:09:18.000Z,98712
2022-10-07T19:11:24.000Z,98708
2022-10-07T19:12:51.000Z,98708
2022-10-07T19:14:57.000Z,98702
2022-10-07T19:16:23.000Z,98702
2022-10-07T19:18:29.000Z,98699
2022-10-07T19:19:56.000Z,98695
2022-10-07T19:22:02.000Z,98696
2022-10-07T19:23:29.000Z,98693
2022-10-07T19:25:35.000Z,98692
2022-10-07T19:27:01.000Z,98693
2022-10-07T19:29:07.000Z,98691
2022-10-07T19:30:34.000Z,98693
2022-10-07T19:32:40.000Z,98697
2022-10-07T19:34:06.000Z,98696
2022-10-07T19:36:12.000Z,98699
2022-10-07T19:39:04.000Z,98695
2022-10-07T19:40:30.000Z,98693
2022-10-07T19:42:36.000Z,98695
2022-10-07T19:44:03.000Z,98697
2022-10-07T19:46:09.000Z,98694
2022-10-07T19:47:35.000Z,98696
2022-10-07T19:49:41.000Z,98692
2022-10-07T19:51:08.000Z,98689
2022-10-07T19:53:14.000Z,98689
2022-10-07T19:54:41.000Z,98686
2022-10-07T19:56:47.000Z,98686
2022-10-07T19:58:13.000Z,98687
2022-10-07T20:00:19.000Z,98690
2022-10-07T20:01:46.000Z,98687
2022-10-07T20:03:52.000Z,98686
2022-10-07T20:05:19.000Z,98688
2022-10-07T20:07:25.000Z,98687
2022-10-07T20:08:51.000Z,98683
2022-10-07T20:10:57.000Z,98689
2022-10-07T20:12:24.000Z,98690
2022-10-07T20:14:30.000Z,98688
2022-10-07T20:17:22.000Z,98686
2022-10-07T20:18:48.000Z,98685
2022-10-07T20:20:54.000Z,98686
2022-10-07T20:22:21.000Z,98677
2022-10-07T20:24:27.000Z,98674
2022-10-07T20:25:53.000Z,98677
2022-10-07T20:27:59.000Z,98677
2022-10-07T20:29:26.000Z,98675
2022-10-07T20:31:32.000Z,98676
2022-10-07T20:32:59.000Z,98673
2022-10-07T20:35:05.000Z,98674
2022-10-07T20:36:31.000Z,98680
2022-10-07T20:38:38.000Z,98674
2022-10-07T20:40:04.000Z,98671
2022-10-07T20:42:10.000Z,98670
2022-10-07T20:43:37.000Z,98673
2022-10-07T20:45:43.000Z,98666
2022-10-07T20:47:09.000Z,98667
2022-10-07T20:49:15.000Z,98666
2022-10-07T20:50:42.000Z,98663
2022-10-07T20:52:48.000Z,98659
2022-10-07T20:55:40.000Z,98665
2022-10-07T20:57:06.000Z,98666
2022-10-07T20:59:12.000Z,98663
2022-10-07T21:00:39.000Z,98660
2022-10-07T21:02:45.000Z,98658
2022-10-07T21:04:12.000Z,98655
2022-10-07T21:06:18.000Z,98660
2022-10-07T21:07:45.000Z,98660
2022-10-07T21:09:51.000Z,98664
2022-10-07T21:11:18.000Z,98659
2022-10-07T21:13:24.000Z,98656
2022-10-07T21:14:50.000Z,98657
2022-10-07T21:16:56.000Z,98655
2022-10-07T21:18:23.000Z,98656
2022-10-07T21:20:29.000Z,98653
2022-10-07T21:21:55.000Z,98652
2022-10-07T21:24:02.000Z,98650
2022-10-07T21:25:28.000Z,98651
2022-10-07T21:27:34.000Z,98652
2022-10-07T21:29:01.000Z,98646
2022-10-07T21:31:07.000Z,98650
2022-10-07T21:33:58.000Z,98651
2022-10-07T21:35:25.000Z,98645
2022-10-07T21:37:31.000Z,98645
2022-10-07T21:38:58.000Z,98645
2022-10-07T21:41:04.000Z,98645
2022-10-07T21:42:30.000Z,98639
2022-10-07T21:44:36.000Z,98636
2022-10-07T21:46:03.000Z,98635
2022-10-07T21:48:09.000Z,98632
2022-10-07T21:49:35.000Z,98630
2022-10-07T21:51:41.000Z,98626
2022-10-07T21:53:08.000Z,98625
2022-10-07T21:55:14.000Z,98624
2022-10-07T21:56:40.000Z,98623
2022-10-07T21:58:47.000Z,98624
2022-10-07T22:00:13.000Z,98622
2022-10-07T22:02:19.000Z,98620
2022-10-07T22:03:46.000Z,98618
2022-10-07T22:05:52.000Z,98616
2022-10-07T22:07:18.000Z,98618
2022-10-07T22:09:25.000Z,98621
2022-10-07T22:12:16.000Z,98613
2022-10-07T22:13:42.000Z,98611
2022-10-07T22:15:48.000Z,98614
2022-10-07T22:17:15.000Z,98612
2022-10-07T22:19:21.000Z,98615
2022-10-07T22:20:48.000Z,98613
2022-10-07T22:22:54.000Z,98609
2022-10-07T22:24:26.000Z,98608
2022-10-07T22:26:32.000Z,98607
2022-10-07T22:27:58.000Z,98611
2022-10-07T22:30:05.000Z,98611
2022-10-07T22:31:31.000Z,98604
2022-10-07T22:33:37.000Z,98604
2022-10-07T22:35:04.000Z,98603
2022-10-07T22:37:10.000Z,98602
2022-10-07T22:38:37.000Z,98602
2022-10-07T22:40:43.000Z,98598
2022-10-07T22:42:09.000Z,98604
2022-10-07T22:44:15.000Z,98602
2022-10-07T22:45:42.000Z,98599
2022-10-07T22:47:48.000Z,98599
2022-10-07T22:50:39.000Z,98597
2022-10-07T22:52:06.000Z,98596
2022-10-07T22:54:12.000Z,98595
2022-10-07T22:55:38.000Z,98594
2022-10-07T22:57:44.000Z,98588
2022-10-07T22:59:11.000Z,98588
2022-10-07T23:01:17.000Z,98586
2022-10-07T23:02:44.000Z,98588
2022-10-07T23:04:51.000Z,98585
2022-10-07T23:06:17.000Z,98582
2022-10-07T23:08:23.000Z,98581
2022-10-07T23:09:50.000Z,98580
2022-10-07T23:11:56.000Z,98577
2022-10-07T23:13:23.000Z,98579
2022-10-07T23:15:29.000Z,98578
2022-10-07T23:16:55.000Z,98584
2022-10-07T23:19:01.000Z,98584
2022-10-07T23:20:28.000Z,98584
2022-10-07T23:22:34.000Z,98585
2022-10-07T23:24:01.000Z,98579
2022-10-07T23:26:13.000Z,98583
2022-10-07T23:29:04.000Z,98587
2022-10-07T23:30:30.000Z,98585